Terminal Aerodrome Forecast
Issued by NWS

Home | Current Version | Previous Version | Text Only | Print | Product List | Glossary On
Versions: 1 2 3 4 5 6 7 8 9 10 11 12 13 14 15
000
FTUS45 KREV 260529
TAFMMH
TAF
KMMH 260529Z 2606/2706 29006KT P6SM FEW080 SCT140
     FM261400 25012G24KT P6SM SCT070 BKN120
     FM261900 28020G40KT P6SM SCT050 BKN080
     FM270200 30016G28KT P6SM SCT080 BKN140=

USA.gov is the U.S. government's official web portal to all federal, state and local government web resources and services.